Quinsam — VY6800 — position and weather

sailwx.info

Track history (hours):
 
Tides and Currents Weather Stations Pressure Air Temp Water Temp Dewpoint Dewpoint Depression Visibility Wind Speed Wind Dir Waves Ship Positions

Quinsam

Last reported at 2015-Jul-30 09:13 UTC. Time now 2015-Jul-30 10:12 UTC.
Position N 49°11' W 123°52'.

Length 88 m; draft 1.5 m.

Type: Ship. MMSI: 316001266.

Date/timePositionNaut miles runAvg speedWind from/ knotsBaromVisibWave heightAir tempDewpointWater temp
2015-Jul-30 09:13N 49°11' W 123°52'0 0.0
2015-Jul-30 08:31N 49°11' W 123°52'0 0.0
2015-Jul-30 06:33N 49°11' W 123°52'3 2.9
2015-Jul-30 05:33N 49°10' W 123°56'3 2.7
2015-Jul-30 04:33N 49°11' W 123°52'0 0.5
2015-Jul-30 03:34N 49°11' W 123°53'1 0.5
2015-Jul-30 02:33N 49°10' W 123°53'1 1.1
2015-Jul-30 01:30N 49°11' W 123°52'0 0.0
2015-Jul-30 00:22N 49°11' W 123°52'2 2.3
2015-Jul-29 23:33N 49°10' W 123°54'1 1.0
2015-Jul-29 22:33N 49°10' W 123°56'0 0.1
2015-Jul-29 21:33N 49°10' W 123°56'2 1.6
2015-Jul-29 20:33N 49°10' W 123°53'1 1.2
2015-Jul-29 19:32N 49°11' W 123°52'2 2.5
2015-Jul-29 18:33N 49°10' W 123°55'0 0.5
2015-Jul-29 17:33N 49°10' W 123°56'1 0.7
2015-Jul-29 16:33N 49°10' W 123°55'2 2.2
2015-Jul-29 15:33N 49°11' W 123°52'0 0.0
2015-Jul-29 14:33N 49°11' W 123°52'2 2.2
2015-Jul-29 13:33N 49°10' W 123°55'2 2.0
2015-Jul-29 12:28N 49°11' W 123°52'0 0.0
2015-Jul-29 11:22N 49°11' W 123°52'0 0.0
2015-Jul-29 10:25N 49°11' W 123°52'0 0.0
2015-Jul-29 08:28N 49°11' W 123°52'0 0.0
2015-Jul-29 07:28N 49°11' W 123°52'0 0.0
2015-Jul-29 06:20N 49°11' W 123°52'1 0.7
2015-Jul-29 05:34N 49°11' W 123°52'0 0.2
2015-Jul-29 04:33N 49°11' W 123°52'1 0.8
2015-Jul-29 03:33N 49°10' W 123°53'1 0.7
2015-Jul-29 02:33N 49°11' W 123°52'0 0.4
2015-Jul-29 01:33N 49°11' W 123°52'0 0.0
2015-Jul-29 00:33N 49°11' W 123°52'2 2.2
2015-Jul-28 23:34N 49°10' W 123°55'1 0.7
2015-Jul-28 22:33N 49°10' W 123°56'1 1.0
2015-Jul-28 21:33N 49°10' W 123°54'2 1.8
2015-Jul-28 20:32N 49°11' W 123°52'0 0.0
2015-Jul-28 19:33N 49°11' W 123°52'2 2.2
2015-Jul-28 18:33N 49°10' W 123°55'1 0.7
2015-Jul-28 17:26N 49°10' W 123°56'1 0.8
2015-Jul-28 16:34N 49°10' W 123°55'2 2.2
2015-Jul-28 15:33N 49°11' W 123°52'0 0.0
2015-Jul-28 14:32N 49°11' W 123°52'2 2.4
2015-Jul-28 13:34N 49°10' W 123°55'2 2.3
2015-Jul-28 12:33N 49°11' W 123°52'0 0.0
2015-Jul-28 11:27N 49°11' W 123°52'0 0.0
2015-Jul-28 08:09N 49°11' W 123°52'0 0.0
2015-Jul-28 07:27N 49°11' W 123°52'0 0.0
2015-Jul-28 06:27N 49°11' W 123°52'0 0.3
2015-Jul-28 05:33N 49°11' W 123°52'0 0.0
2015-Jul-28 04:33N 49°11' W 123°52'1 1.0
2015-Jul-28 03:34N 49°10' W 123°53'1 0.9
2015-Jul-28 02:33N 49°11' W 123°52'0 0.3
2015-Jul-28 01:31N 49°11' W 123°52'0 0.0
2015-Jul-28 00:33N 49°11' W 123°52'2 1.7
2015-Jul-27 23:33N 49°10' W 123°54'1 1.2
2015-Jul-27 22:33N 49°10' W 123°56'0 0.0
2015-Jul-27 21:33N 49°10' W 123°56'2 2.2
2015-Jul-27 20:33N 49°11' W 123°53'1 0.7
2015-Jul-27 19:33N 49°11' W 123°52'2 2.4
2015-Jul-27 18:33N 49°10' W 123°55'1 0.5
2015-Jul-27 17:33N 49°10' W 123°56'1 1.1
2015-Jul-27 16:33N 49°10' W 123°54'2 1.8
2015-Jul-27 15:33N 49°11' W 123°52'0 0.0
2015-Jul-27 14:33N 49°11' W 123°52'3 2.9
2015-Jul-27 13:33N 49°10' W 123°56'3 2.7
2015-Jul-27 12:28N 49°11' W 123°52'0 0.0
2015-Jul-27 11:28N 49°11' W 123°52'0 0.0
2015-Jul-27 10:28N 49°11' W 123°52'0 0.0
2015-Jul-27 06:28N 49°11' W 123°52'1 0.7
2015-Jul-27 05:33N 49°11' W 123°53'1 0.7
2015-Jul-27 04:33N 49°11' W 123°52'1 1.1
2015-Jul-27 03:33N 49°10' W 123°53'1 0.9
2015-Jul-27 02:33N 49°11' W 123°52'0 0.1
2015-Jul-27 01:28N 49°11' W 123°52'0 0.1
2015-Jul-27 00:23N 49°11' W 123°52'1 1.8
2015-Jul-26 23:33N 49°10' W 123°54'1 1.4
2015-Jul-26 22:33N 49°10' W 123°56'3 1.4
2015-Jul-26 20:33N 49°11' W 123°52'0 0.0
2015-Jul-26 19:33N 49°11' W 123°52'2 2.2
2015-Jul-26 18:34N 49°10' W 123°55'1 0.7
2015-Jul-26 17:33N 49°10' W 123°56'0 0.3
2015-Jul-26 16:34N 49°10' W 123°55'2 2.5
2015-Jul-26 15:33N 49°11' W 123°52'3 2.8
2015-Jul-26 14:33N 49°10' W 123°56'0 0.2
2015-Jul-26 13:33N 49°10' W 123°56'3 2.3
2015-Jul-26 12:21N 49°11' W 123°52'0 0.0
2015-Jul-26 11:30N 49°11' W 123°52'0 0.0
2015-Jul-26 09:30N 49°11' W 123°52'0 0.0
2015-Jul-26 08:18N 49°11' W 123°52'0 0.0
2015-Jul-26 06:22N 49°11' W 123°52'0 0.0
2015-Jul-26 05:33N 49°11' W 123°52'0 0.0
2015-Jul-26 04:33N 49°11' W 123°52'1 1.0
2015-Jul-26 03:33N 49°11' W 123°53'1 0.7
2015-Jul-26 02:33N 49°11' W 123°52'0 0.3
2015-Jul-26 01:32N 49°11' W 123°52'0 0.0
2015-Jul-26 00:33N 49°11' W 123°52'2 1.8
2015-Jul-25 23:34N 49°10' W 123°54'1 1.1
2015-Jul-25 22:33N 49°10' W 123°56'3 2.9
2015-Jul-25 21:32N 49°11' W 123°52'1 1.1
2015-Jul-25 20:33N 49°10' W 123°53'1 1.0
2015-Jul-25 19:32N 49°11' W 123°52'2 1.9
2015-Jul-25 18:34N 49°10' W 123°54'1 1.1
2015-Jul-25 17:34N 49°10' W 123°56'1 0.8
2015-Jul-25 16:34N 49°10' W 123°55'2 1.9
2015-Jul-25 15:33N 49°11' W 123°52'0 0.3
2015-Jul-25 14:34N 49°11' W 123°52'3 2.9
2015-Jul-25 13:33N 49°10' W 123°56'3 2.8
2015-Jul-25 12:31N 49°11' W 123°52'0 0.0
2015-Jul-25 11:22N 49°11' W 123°52'0 0.0
2015-Jul-25 10:22N 49°11' W 123°52'0 0.0
2015-Jul-25 06:23N 49°11' W 123°52'1 0.6
2015-Jul-25 05:33N 49°11' W 123°52'0 0.0
2015-Jul-25 04:33N 49°11' W 123°52'1 0.7
2015-Jul-25 03:33N 49°10' W 123°53'1 0.5
2015-Jul-25 02:33N 49°11' W 123°53'1 0.6
2015-Jul-25 01:33N 49°11' W 123°52'0 0.0
2015-Jul-25 00:33N 49°11' W 123°52'2 2.2
2015-Jul-24 23:33N 49°10' W 123°55'1 0.7
2015-Jul-24 22:33N 49°10' W 123°56'0 0.2
2015-Jul-24 21:33N 49°10' W 123°56'2 2.4
2015-Jul-24 20:33N 49°11' W 123°52'0 0.4
2015-Jul-24 19:33N 49°11' W 123°52'2 1.7
2015-Jul-24 18:33N 49°10' W 123°54'1 1.2
2015-Jul-24 17:33N 49°10' W 123°56'0 0.4
2015-Jul-24 16:33N 49°10' W 123°55'3 2.5
2015-Jul-24 15:33N 49°11' W 123°52'0 0.0
2015-Jul-24 14:33N 49°11' W 123°52'3 2.7
2015-Jul-24 13:33N 49°10' W 123°55'3 2.6
2015-Jul-24 12:32N 49°11' W 123°52'0 0.0
2015-Jul-24 11:20N 49°11' W 123°52'0 0.0
2015-Jul-24 10:32N 49°11' W 123°52'0 0.0
2015-Jul-24 09:32N 49°11' W 123°52'0 0.0
2015-Jul-24 08:32N 49°11' W 123°52'0 0.0
2015-Jul-24 07:20N 49°11' W 123°52'0 0.0
2015-Jul-24 06:32N 49°11' W 123°52'0 0.2
2015-Jul-24 05:33N 49°11' W 123°52'0 0.2
2015-Jul-24 04:33N 49°11' W 123°52'1 1.1
2015-Jul-24 03:33N 49°10' W 123°54'2 1.5
2015-Jul-24 02:33N 49°10' W 123°56'0 0.0
2015-Jul-24 01:33N 49°10' W 123°56'1 1.0
2015-Jul-24 00:33N 49°10' W 123°54'2 1.8
2015-Jul-23 23:31N 49°11' W 123°52'1 1.5
2015-Jul-23 22:33N 49°10' W 123°54'1 1.5
2015-Jul-23 21:33N 49°10' W 123°56'1 0.7
2015-Jul-23 20:33N 49°10' W 123°55'2 2.2
2015-Jul-23 19:33N 49°11' W 123°52'0 0.2
2015-Jul-23 18:33N 49°11' W 123°52'3 2.7
2015-Jul-23 17:33N 49°10' W 123°56'0 0.1
2015-Jul-23 16:33N 49°10' W 123°56'3 2.7
2015-Jul-23 15:33N 49°11' W 123°52'0 0.1
2015-Jul-23 14:31N 49°11' W 123°52'2 2.4
2015-Jul-23 13:33N 49°10' W 123°55'2 2.1
2015-Jul-23 12:27N 49°11' W 123°52'0 0.0
2015-Jul-23 11:33N 49°11' W 123°52'0 0.0
2015-Jul-23 10:27N 49°11' W 123°52'0 0.0
2015-Jul-23 06:21N 49°11' W 123°52'3 3.6
2015-Jul-23 05:33N 49°10' W 123°56'2 2.4
2015-Jul-23 04:33N 49°11' W 123°52'1 0.9
2015-Jul-23 03:34N 49°11' W 123°54'1 0.9
2015-Jul-23 02:33N 49°11' W 123°52'0 0.4
2015-Jul-23 01:33N 49°11' W 123°52'0 0.0
2015-Jul-23 00:27N 49°11' W 123°52'2 2.0
2015-Jul-22 23:32N 49°10' W 123°54'1 1.1
2015-Jul-22 22:33N 49°10' W 123°56'1 0.6
2015-Jul-22 21:33N 49°10' W 123°55'2 2.0
2015-Jul-22 20:33N 49°11' W 123°52'0 0.3
2015-Jul-22 19:33N 49°11' W 123°52'2 2.2
2015-Jul-22 18:33N 49°10' W 123°55'1 0.7
2015-Jul-22 17:33N 49°10' W 123°56'0 0.3
2015-Jul-22 16:33N 49°10' W 123°55'3 2.5
2015-Jul-22 15:31N 49°11' W 123°52'0 0.0
2015-Jul-22 14:33N 49°11' W 123°52'2 2.4
2015-Jul-22 13:34N 49°10' W 123°55'2 2.3
2015-Jul-22 12:32N 49°11' W 123°52'0 0.0
2015-Jul-22 11:32N 49°11' W 123°52'0 0.0
2015-Jul-22 10:32N 49°11' W 123°52'0 0.0
2015-Jul-22 06:26N 49°11' W 123°52'0 0.2
2015-Jul-22 05:33N 49°11' W 123°52'0 0.2
2015-Jul-22 04:29N 49°11' W 123°52'1 1.4
2015-Jul-22 03:33N 49°10' W 123°53'1 0.7
2015-Jul-22 02:34N 49°11' W 123°52'1 0.6
2015-Jul-22 01:33N 49°11' W 123°52'0 0.0
2015-Jul-22 00:28N 49°11' W 123°52'2 2.5
2015-Jul-21 23:33N 49°10' W 123°55'1 0.6
2015-Jul-21 22:33N 49°10' W 123°56'1 0.5
2015-Jul-21 21:33N 49°10' W 123°55'2 1.9
2015-Jul-21 20:33N 49°11' W 123°52'1 0.5
2015-Jul-21 19:26N 49°11' W 123°52'1 1.4
2015-Jul-21 18:33N 49°10' W 123°53'2 1.6
2015-Jul-21 17:33N 49°10' W 123°56'1 1.2
2015-Jul-21 16:33N 49°10' W 123°54'2 1.7
2015-Jul-21 15:33N 49°11' W 123°52'0 0.0
2015-Jul-21 14:32N 49°11' W 123°52'3 2.7
2015-Jul-21 13:33N 49°10' W 123°55'3 2.5
2015-Jul-21 12:32N 49°11' W 123°52'0 0.0
2015-Jul-21 11:26N 49°11' W 123°52'0 0.0
2015-Jul-21 10:26N 49°11' W 123°52'0 0.0
2015-Jul-21 09:23N 49°11' W 123°52'0 0.0
2015-Jul-21 08:26N 49°11' W 123°52'0 0.0
2015-Jul-21 06:23N 49°11' W 123°52'0 0.0
2015-Jul-21 05:28N 49°11' W 123°52'0 0.0
2015-Jul-21 04:27N 49°11' W 123°52'0 0.4
2015-Jul-21 03:33N 49°11' W 123°52'0 0.2
2015-Jul-21 02:33N 49°11' W 123°52'1 0.6
2015-Jul-21 01:31N 49°11' W 123°52'0 0.0
2015-Jul-21 00:33N 49°11' W 123°52'2 2.1
2015-Jul-20 23:33N 49°10' W 123°55'1 0.8
2015-Jul-20 22:33N 49°10' W 123°56'1 1.3
2015-Jul-20 21:33N 49°10' W 123°54'2 1.5
2015-Jul-20 20:33N 49°11' W 123°52'0 0.1
2015-Jul-20 19:29N 49°11' W 123°52'1 1.1
2015-Jul-20 18:33N 49°10' W 123°53'2 1.9
2015-Jul-20 17:33N 49°10' W 123°56'1 0.7
2015-Jul-20 16:33N 49°10' W 123°55'2 2.1
2015-Jul-20 15:33N 49°11' W 123°52'0 0.1
2015-Jul-20 14:33N 49°11' W 123°52'3 2.8
2015-Jul-20 13:33N 49°10' W 123°56'3 0.9
2015-Jul-20 10:15N 49°11' W 123°52'0 0.0
2015-Jul-20 09:33N 49°11' W 123°52'  
Track history (hours):
 
Tides and Currents Weather Stations Pressure Air Temp Water Temp Dewpoint Dewpoint Depression Visibility Wind Speed Wind Dir Waves Ship Positions

Quinsam

Last reported at 2015-Jul-30 09:13 UTC. Time now 2015-Jul-30 10:12 UTC.
Position N 49°11' W 123°52'.

Length 88 m; draft 1.5 m.

Type: Ship. MMSI: 316001266.

Date/timePositionNaut miles runAvg speedWind from/ knotsBaromVisibWave heightAir tempDewpointWater temp
2015-Jul-30 09:13N 49°11' W 123°52'0 0.0
2015-Jul-30 08:31N 49°11' W 123°52'0 0.0
2015-Jul-30 06:33N 49°11' W 123°52'3 2.9
2015-Jul-30 05:33N 49°10' W 123°56'3 2.7
2015-Jul-30 04:33N 49°11' W 123°52'0 0.5
2015-Jul-30 03:34N 49°11' W 123°53'1 0.5
2015-Jul-30 02:33N 49°10' W 123°53'1 1.1
2015-Jul-30 01:30N 49°11' W 123°52'0 0.0
2015-Jul-30 00:22N 49°11' W 123°52'2 2.3
2015-Jul-29 23:33N 49°10' W 123°54'1 1.0
2015-Jul-29 22:33N 49°10' W 123°56'0 0.1
2015-Jul-29 21:33N 49°10' W 123°56'2 1.6
2015-Jul-29 20:33N 49°10' W 123°53'1 1.2
2015-Jul-29 19:32N 49°11' W 123°52'2 2.5
2015-Jul-29 18:33N 49°10' W 123°55'0 0.5
2015-Jul-29 17:33N 49°10' W 123°56'1 0.7
2015-Jul-29 16:33N 49°10' W 123°55'2 2.2
2015-Jul-29 15:33N 49°11' W 123°52'0 0.0
2015-Jul-29 14:33N 49°11' W 123°52'2 2.2
2015-Jul-29 13:33N 49°10' W 123°55'2 2.0
2015-Jul-29 12:28N 49°11' W 123°52'0 0.0
2015-Jul-29 11:22N 49°11' W 123°52'0 0.0
2015-Jul-29 10:25N 49°11' W 123°52'0 0.0
2015-Jul-29 08:28N 49°11' W 123°52'0 0.0
2015-Jul-29 07:28N 49°11' W 123°52'0 0.0
2015-Jul-29 06:20N 49°11' W 123°52'1 0.7
2015-Jul-29 05:34N 49°11' W 123°52'0 0.2
2015-Jul-29 04:33N 49°11' W 123°52'1 0.8
2015-Jul-29 03:33N 49°10' W 123°53'1 0.7
2015-Jul-29 02:33N 49°11' W 123°52'0 0.4
2015-Jul-29 01:33N 49°11' W 123°52'0 0.0
2015-Jul-29 00:33N 49°11' W 123°52'2 2.2
2015-Jul-28 23:34N 49°10' W 123°55'1 0.7
2015-Jul-28 22:33N 49°10' W 123°56'1 1.0
2015-Jul-28 21:33N 49°10' W 123°54'2 1.8
2015-Jul-28 20:32N 49°11' W 123°52'0 0.0
2015-Jul-28 19:33N 49°11' W 123°52'2 2.2
2015-Jul-28 18:33N 49°10' W 123°55'1 0.7
2015-Jul-28 17:26N 49°10' W 123°56'1 0.8
2015-Jul-28 16:34N 49°10' W 123°55'2 2.2
2015-Jul-28 15:33N 49°11' W 123°52'0 0.0
2015-Jul-28 14:32N 49°11' W 123°52'2 2.4
2015-Jul-28 13:34N 49°10' W 123°55'2 2.3
2015-Jul-28 12:33N 49°11' W 123°52'0 0.0
2015-Jul-28 11:27N 49°11' W 123°52'0 0.0
2015-Jul-28 08:09N 49°11' W 123°52'0 0.0
2015-Jul-28 07:27N 49°11' W 123°52'0 0.0
2015-Jul-28 06:27N 49°11' W 123°52'0 0.3
2015-Jul-28 05:33N 49°11' W 123°52'0 0.0
2015-Jul-28 04:33N 49°11' W 123°52'1 1.0
2015-Jul-28 03:34N 49°10' W 123°53'1 0.9
2015-Jul-28 02:33N 49°11' W 123°52'0 0.3
2015-Jul-28 01:31N 49°11' W 123°52'0 0.0
2015-Jul-28 00:33N 49°11' W 123°52'2 1.7
2015-Jul-27 23:33N 49°10' W 123°54'1 1.2
2015-Jul-27 22:33N 49°10' W 123°56'0 0.0
2015-Jul-27 21:33N 49°10' W 123°56'2 2.2
2015-Jul-27 20:33N 49°11' W 123°53'1 0.7
2015-Jul-27 19:33N 49°11' W 123°52'2 2.4
2015-Jul-27 18:33N 49°10' W 123°55'1 0.5
2015-Jul-27 17:33N 49°10' W 123°56'1 1.1
2015-Jul-27 16:33N 49°10' W 123°54'2 1.8
2015-Jul-27 15:33N 49°11' W 123°52'0 0.0
2015-Jul-27 14:33N 49°11' W 123°52'3 2.9
2015-Jul-27 13:33N 49°10' W 123°56'3 2.7
2015-Jul-27 12:28N 49°11' W 123°52'0 0.0
2015-Jul-27 11:28N 49°11' W 123°52'0 0.0
2015-Jul-27 10:28N 49°11' W 123°52'0 0.0
2015-Jul-27 06:28N 49°11' W 123°52'1 0.7
2015-Jul-27 05:33N 49°11' W 123°53'1 0.7
2015-Jul-27 04:33N 49°11' W 123°52'1 1.1
2015-Jul-27 03:33N 49°10' W 123°53'1 0.9
2015-Jul-27 02:33N 49°11' W 123°52'0 0.1
2015-Jul-27 01:28N 49°11' W 123°52'0 0.1
2015-Jul-27 00:23N 49°11' W 123°52'1 1.8
2015-Jul-26 23:33N 49°10' W 123°54'1 1.4
2015-Jul-26 22:33N 49°10' W 123°56'3 1.4
2015-Jul-26 20:33N 49°11' W 123°52'0 0.0
2015-Jul-26 19:33N 49°11' W 123°52'2 2.2
2015-Jul-26 18:34N 49°10' W 123°55'1 0.7
2015-Jul-26 17:33N 49°10' W 123°56'0 0.3
2015-Jul-26 16:34N 49°10' W 123°55'2 2.5
2015-Jul-26 15:33N 49°11' W 123°52'3 2.8
2015-Jul-26 14:33N 49°10' W 123°56'0 0.2
2015-Jul-26 13:33N 49°10' W 123°56'3 2.3
2015-Jul-26 12:21N 49°11' W 123°52'0 0.0
2015-Jul-26 11:30N 49°11' W 123°52'0 0.0
2015-Jul-26 09:30N 49°11' W 123°52'0 0.0
2015-Jul-26 08:18N 49°11' W 123°52'0 0.0
2015-Jul-26 06:22N 49°11' W 123°52'0 0.0
2015-Jul-26 05:33N 49°11' W 123°52'0 0.0
2015-Jul-26 04:33N 49°11' W 123°52'1 1.0
2015-Jul-26 03:33N 49°11' W 123°53'1 0.7
2015-Jul-26 02:33N 49°11' W 123°52'0 0.3
2015-Jul-26 01:32N 49°11' W 123°52'0 0.0
2015-Jul-26 00:33N 49°11' W 123°52'2 1.8
2015-Jul-25 23:34N 49°10' W 123°54'1 1.1
2015-Jul-25 22:33N 49°10' W 123°56'3 2.9
2015-Jul-25 21:32N 49°11' W 123°52'1 1.1
2015-Jul-25 20:33N 49°10' W 123°53'1 1.0
2015-Jul-25 19:32N 49°11' W 123°52'2 1.9
2015-Jul-25 18:34N 49°10' W 123°54'1 1.1
2015-Jul-25 17:34N 49°10' W 123°56'1 0.8
2015-Jul-25 16:34N 49°10' W 123°55'2 1.9
2015-Jul-25 15:33N 49°11' W 123°52'0 0.3
2015-Jul-25 14:34N 49°11' W 123°52'3 2.9
2015-Jul-25 13:33N 49°10' W 123°56'3 2.8
2015-Jul-25 12:31N 49°11' W 123°52'0 0.0
2015-Jul-25 11:22N 49°11' W 123°52'0 0.0
2015-Jul-25 10:22N 49°11' W 123°52'0 0.0
2015-Jul-25 06:23N 49°11' W 123°52'1 0.6
2015-Jul-25 05:33N 49°11' W 123°52'0 0.0
2015-Jul-25 04:33N 49°11' W 123°52'1 0.7
2015-Jul-25 03:33N 49°10' W 123°53'1 0.5
2015-Jul-25 02:33N 49°11' W 123°53'1 0.6
2015-Jul-25 01:33N 49°11' W 123°52'0 0.0
2015-Jul-25 00:33N 49°11' W 123°52'2 2.2
2015-Jul-24 23:33N 49°10' W 123°55'1 0.7
2015-Jul-24 22:33N 49°10' W 123°56'0 0.2
2015-Jul-24 21:33N 49°10' W 123°56'2 2.4
2015-Jul-24 20:33N 49°11' W 123°52'0 0.4
2015-Jul-24 19:33N 49°11' W 123°52'2 1.7
2015-Jul-24 18:33N 49°10' W 123°54'1 1.2
2015-Jul-24 17:33N 49°10' W 123°56'0 0.4
2015-Jul-24 16:33N 49°10' W 123°55'3 2.5
2015-Jul-24 15:33N 49°11' W 123°52'0 0.0
2015-Jul-24 14:33N 49°11' W 123°52'3 2.7
2015-Jul-24 13:33N 49°10' W 123°55'3 2.6
2015-Jul-24 12:32N 49°11' W 123°52'0 0.0
2015-Jul-24 11:20N 49°11' W 123°52'0 0.0
2015-Jul-24 10:32N 49°11' W 123°52'0 0.0
2015-Jul-24 09:32N 49°11' W 123°52'0 0.0
2015-Jul-24 08:32N 49°11' W 123°52'0 0.0
2015-Jul-24 07:20N 49°11' W 123°52'0 0.0
2015-Jul-24 06:32N 49°11' W 123°52'0 0.2
2015-Jul-24 05:33N 49°11' W 123°52'0 0.2
2015-Jul-24 04:33N 49°11' W 123°52'1 1.1
2015-Jul-24 03:33N 49°10' W 123°54'2 1.5
2015-Jul-24 02:33N 49°10' W 123°56'0 0.0
2015-Jul-24 01:33N 49°10' W 123°56'1 1.0
2015-Jul-24 00:33N 49°10' W 123°54'2 1.8
2015-Jul-23 23:31N 49°11' W 123°52'1 1.5
2015-Jul-23 22:33N 49°10' W 123°54'1 1.5
2015-Jul-23 21:33N 49°10' W 123°56'1 0.7
2015-Jul-23 20:33N 49°10' W 123°55'2 2.2
2015-Jul-23 19:33N 49°11' W 123°52'0 0.2
2015-Jul-23 18:33N 49°11' W 123°52'3 2.7
2015-Jul-23 17:33N 49°10' W 123°56'0 0.1
2015-Jul-23 16:33N 49°10' W 123°56'3 2.7
2015-Jul-23 15:33N 49°11' W 123°52'0 0.1
2015-Jul-23 14:31N 49°11' W 123°52'2 2.4
2015-Jul-23 13:33N 49°10' W 123°55'2 2.1
2015-Jul-23 12:27N 49°11' W 123°52'0 0.0
2015-Jul-23 11:33N 49°11' W 123°52'0 0.0
2015-Jul-23 10:27N 49°11' W 123°52'0 0.0
2015-Jul-23 06:21N 49°11' W 123°52'3 3.6
2015-Jul-23 05:33N 49°10' W 123°56'2 2.4
2015-Jul-23 04:33N 49°11' W 123°52'1 0.9
2015-Jul-23 03:34N 49°11' W 123°54'1 0.9
2015-Jul-23 02:33N 49°11' W 123°52'0 0.4
2015-Jul-23 01:33N 49°11' W 123°52'0 0.0
2015-Jul-23 00:27N 49°11' W 123°52'2 2.0
2015-Jul-22 23:32N 49°10' W 123°54'1 1.1
2015-Jul-22 22:33N 49°10' W 123°56'1 0.6
2015-Jul-22 21:33N 49°10' W 123°55'2 2.0
2015-Jul-22 20:33N 49°11' W 123°52'0 0.3
2015-Jul-22 19:33N 49°11' W 123°52'2 2.2
2015-Jul-22 18:33N 49°10' W 123°55'1 0.7
2015-Jul-22 17:33N 49°10' W 123°56'0 0.3
2015-Jul-22 16:33N 49°10' W 123°55'3 2.5
2015-Jul-22 15:31N 49°11' W 123°52'0 0.0
2015-Jul-22 14:33N 49°11' W 123°52'2 2.4
2015-Jul-22 13:34N 49°10' W 123°55'2 2.3
2015-Jul-22 12:32N 49°11' W 123°52'0 0.0
2015-Jul-22 11:32N 49°11' W 123°52'0 0.0
2015-Jul-22 10:32N 49°11' W 123°52'0 0.0
2015-Jul-22 06:26N 49°11' W 123°52'0 0.2
2015-Jul-22 05:33N 49°11' W 123°52'0 0.2
2015-Jul-22 04:29N 49°11' W 123°52'1 1.4
2015-Jul-22 03:33N 49°10' W 123°53'1 0.7
2015-Jul-22 02:34N 49°11' W 123°52'1 0.6
2015-Jul-22 01:33N 49°11' W 123°52'0 0.0
2015-Jul-22 00:28N 49°11' W 123°52'2 2.5
2015-Jul-21 23:33N 49°10' W 123°55'1 0.6
2015-Jul-21 22:33N 49°10' W 123°56'1 0.5
2015-Jul-21 21:33N 49°10' W 123°55'2 1.9
2015-Jul-21 20:33N 49°11' W 123°52'1 0.5
2015-Jul-21 19:26N 49°11' W 123°52'1 1.4
2015-Jul-21 18:33N 49°10' W 123°53'2 1.6
2015-Jul-21 17:33N 49°10' W 123°56'1 1.2
2015-Jul-21 16:33N 49°10' W 123°54'2 1.7
2015-Jul-21 15:33N 49°11' W 123°52'0 0.0
2015-Jul-21 14:32N 49°11' W 123°52'3 2.7
2015-Jul-21 13:33N 49°10' W 123°55'3 2.5
2015-Jul-21 12:32N 49°11' W 123°52'0 0.0
2015-Jul-21 11:26N 49°11' W 123°52'0 0.0
2015-Jul-21 10:26N 49°11' W 123°52'0 0.0
2015-Jul-21 09:23N 49°11' W 123°52'0 0.0
2015-Jul-21 08:26N 49°11' W 123°52'0 0.0
2015-Jul-21 06:23N 49°11' W 123°52'0 0.0
2015-Jul-21 05:28N 49°11' W 123°52'0 0.0
2015-Jul-21 04:27N 49°11' W 123°52'0 0.4
2015-Jul-21 03:33N 49°11' W 123°52'0 0.2
2015-Jul-21 02:33N 49°11' W 123°52'1 0.6
2015-Jul-21 01:31N 49°11' W 123°52'0 0.0
2015-Jul-21 00:33N 49°11' W 123°52'2 2.1
2015-Jul-20 23:33N 49°10' W 123°55'1 0.8
2015-Jul-20 22:33N 49°10' W 123°56'1 1.3
2015-Jul-20 21:33N 49°10' W 123°54'2 1.5
2015-Jul-20 20:33N 49°11' W 123°52'0 0.1
2015-Jul-20 19:29N 49°11' W 123°52'1 1.1
2015-Jul-20 18:33N 49°10' W 123°53'2 1.9
2015-Jul-20 17:33N 49°10' W 123°56'1 0.7
2015-Jul-20 16:33N 49°10' W 123°55'2 2.1
2015-Jul-20 15:33N 49°11' W 123°52'0 0.1
2015-Jul-20 14:33N 49°11' W 123°52'3 2.8
2015-Jul-20 13:33N 49°10' W 123°56'3 0.9
2015-Jul-20 10:15N 49°11' W 123°52'0 0.0
2015-Jul-20 09:33N 49°11' W 123°52'  

Dump ship's entire track history